sensor_id;sensor_type;location;lat;lon;timestamp;P1;P2;P0
81998;PMS5003;71598;46.516;-122.928;2023-09-19T00:02:15;11;11;
81998;PMS5003;71598;46.516;-122.928;2023-09-19T00:04:40;8;8;
81998;PMS5003;71598;46.516;-122.928;2023-09-19T00:07:06;10;10;
81998;PMS5003;71598;46.516;-122.928;2023-09-19T00:09:31;10;10;
81998;PMS5003;71598;46.516;-122.928;2023-09-19T00:11:56;9;8;
81998;PMS5003;71598;46.516;-122.928;2023-09-19T00:14:24;10;10;
81998;PMS5003;71598;46.516;-122.928;2023-09-19T00:16:47;11;11;
81998;PMS5003;71598;46.516;-122.928;2023-09-19T00:19:12;13;13;
81998;PMS5003;71598;46.516;-122.928;2023-09-19T00:21:37;10;10;
81998;PMS5003;71598;46.516;-122.928;2023-09-19T00:24:03;12;12;
81998;PMS5003;71598;46.516;-122.928;2023-09-19T00:26:28;12;11;
81998;PMS5003;71598;46.516;-122.928;2023-09-19T00:28:54;9;9;
81998;PMS5003;71598;46.516;-122.928;2023-09-19T00:31:19;11;11;
81998;PMS5003;71598;46.516;-122.928;2023-09-19T00:33:45;11;11;
81998;PMS5003;71598;46.516;-122.928;2023-09-19T00:36:10;11;10;
81998;PMS5003;71598;46.516;-122.928;2023-09-19T00:38:35;8;8;
81998;PMS5003;71598;46.516;-122.928;2023-09-19T00:41:00;9;9;
81998;PMS5003;71598;46.516;-122.928;2023-09-19T00:43:25;12;11;
81998;PMS5003;71598;46.516;-122.928;2023-09-19T00:45:52;9;9;
81998;PMS5003;71598;46.516;-122.928;2023-09-19T00:48:16;11;11;
81998;PMS5003;71598;46.516;-122.928;2023-09-19T00:50:41;11;11;
81998;PMS5003;71598;46.516;-122.928;2023-09-19T00:53:07;10;10;
81998;PMS5003;71598;46.516;-122.928;2023-09-19T00:55:32;12;12;
81998;PMS5003;71598;46.516;-122.928;2023-09-19T00:57:58;14;13;
81998;PMS5003;71598;46.516;-122.928;2023-09-19T01:00:22;12;12;
81998;PMS5003;71598;46.516;-122.928;2023-09-19T01:02:48;9;9;
81998;PMS5003;71598;46.516;-122.928;2023-09-19T01:05:13;11;11;
81998;PMS5003;71598;46.516;-122.928;2023-09-19T01:07:38;16;15;
81998;PMS5003;71598;46.516;-122.928;2023-09-19T01:10:04;16;15;
81998;PMS5003;71598;46.516;-122.928;2023-09-19T01:12:30;17;17;
81998;PMS5003;71598;46.516;-122.928;2023-09-19T01:14:55;17;17;
81998;PMS5003;71598;46.516;-122.928;2023-09-19T01:17:23;15;15;
81998;PMS5003;71598;46.516;-122.928;2023-09-19T01:19:53;13;13;
81998;PMS5003;71598;46.516;-122.928;2023-09-19T01:22:13;16;16;
81998;PMS5003;71598;46.516;-122.928;2023-09-19T01:24:52;14;14;
81998;PMS5003;71598;46.516;-122.928;2023-09-19T01:27:17;16;16;
81998;PMS5003;71598;46.516;-122.928;2023-09-19T01:29:32;15;15;
81998;PMS5003;71598;46.516;-122.928;2023-09-19T01:31:53;14;14;
81998;PMS5003;71598;46.516;-122.928;2023-09-19T01:34:18;15;15;
81998;PMS5003;71598;46.516;-122.928;2023-09-19T01:36:43;16;16;
81998;PMS5003;71598;46.516;-122.928;2023-09-19T01:39:09;18;17;
81998;PMS5003;71598;46.516;-122.928;2023-09-19T01:41:44;18;18;
81998;PMS5003;71598;46.516;-122.928;2023-09-19T01:44:00;16;16;
81998;PMS5003;71598;46.516;-122.928;2023-09-19T01:46:27;21;21;
81998;PMS5003;71598;46.516;-122.928;2023-09-19T01:48:54;18;18;
81998;PMS5003;71598;46.516;-122.928;2023-09-19T01:51:18;17;17;
81998;PMS5003;71598;46.516;-122.928;2023-09-19T01:53:43;18;18;
81998;PMS5003;71598;46.516;-122.928;2023-09-19T01:56:09;22;22;
81998;PMS5003;71598;46.516;-122.928;2023-09-19T01:58:34;18;18;
81998;PMS5003;71598;46.516;-122.928;2023-09-19T02:00:58;19;19;
81998;PMS5003;71598;46.516;-122.928;2023-09-19T02:03:23;31;31;
81998;PMS5003;71598;46.516;-122.928;2023-09-19T02:05:49;30;30;
81998;PMS5003;71598;46.516;-122.928;2023-09-19T02:08:15;36;36;
81998;PMS5003;71598;46.516;-122.928;2023-09-19T02:10:40;37;36;
81998;PMS5003;71598;46.516;-122.928;2023-09-19T02:13:05;40;40;
81998;PMS5003;71598;46.516;-122.928;2023-09-19T02:15:30;43;42;
81998;PMS5003;71598;46.516;-122.928;2023-09-19T02:17:56;43;43;
81998;PMS5003;71598;46.516;-122.928;2023-09-19T02:20:21;40;40;
81998;PMS5003;71598;46.516;-122.928;2023-09-19T02:22:46;41;41;
81998;PMS5003;71598;46.516;-122.928;2023-09-19T02:25:12;41;40;
81998;PMS5003;71598;46.516;-122.928;2023-09-19T02:27:37;32;31;
81998;PMS5003;71598;46.516;-122.928;2023-09-19T02:30:02;27;26;
81998;PMS5003;71598;46.516;-122.928;2023-09-19T02:32:27;27;27;
81998;PMS5003;71598;46.516;-122.928;2023-09-19T02:34:59;31;31;
81998;PMS5003;71598;46.516;-122.928;2023-09-19T02:37:18;29;28;
81998;PMS5003;71598;46.516;-122.928;2023-09-19T02:39:44;34;34;
81998;PMS5003;71598;46.516;-122.928;2023-09-19T02:42:09;34;32;
81998;PMS5003;71598;46.516;-122.928;2023-09-19T02:44:34;32;32;
81998;PMS5003;71598;46.516;-122.928;2023-09-19T02:47:00;38;37;
81998;PMS5003;71598;46.516;-122.928;2023-09-19T02:49:25;37;37;
81998;PMS5003;71598;46.516;-122.928;2023-09-19T02:51:50;39;38;
81998;PMS5003;71598;46.516;-122.928;2023-09-19T02:54:15;43;43;
81998;PMS5003;71598;46.516;-122.928;2023-09-19T02:56:42;43;43;
81998;PMS5003;71598;46.516;-122.928;2023-09-19T02:59:07;46;45;
81998;PMS5003;71598;46.516;-122.928;2023-09-19T03:01:32;52;51;
81998;PMS5003;71598;46.516;-122.928;2023-09-19T03:03:57;46;46;
81998;PMS5003;71598;46.516;-122.928;2023-09-19T03:06:23;52;51;
81998;PMS5003;71598;46.516;-122.928;2023-09-19T03:08:48;48;47;
81998;PMS5003;71598;46.516;-122.928;2023-09-19T03:11:14;55;55;
81998;PMS5003;71598;46.516;-122.928;2023-09-19T03:13:39;55;53;
81998;PMS5003;71598;46.516;-122.928;2023-09-19T03:16:05;53;51;
81998;PMS5003;71598;46.516;-122.928;2023-09-19T03:18:30;51;51;
81998;PMS5003;71598;46.516;-122.928;2023-09-19T03:20:55;56;55;
81998;PMS5003;71598;46.516;-122.928;2023-09-19T03:23:20;59;57;
81998;PMS5003;71598;46.516;-122.928;2023-09-19T03:25:46;56;54;
81998;PMS5003;71598;46.516;-122.928;2023-09-19T03:28:11;49;48;
81998;PMS5003;71598;46.516;-122.928;2023-09-19T03:30:36;48;47;
81998;PMS5003;71598;46.516;-122.928;2023-09-19T03:33:02;49;48;
81998;PMS5003;71598;46.516;-122.928;2023-09-19T03:35:28;55;54;
81998;PMS5003;71598;46.516;-122.928;2023-09-19T03:37:52;55;55;
81998;PMS5003;71598;46.516;-122.928;2023-09-19T03:40:17;60;59;
81998;PMS5003;71598;46.516;-122.928;2023-09-19T03:42:45;54;52;
81998;PMS5003;71598;46.516;-122.928;2023-09-19T03:45:09;54;53;
81998;PMS5003;71598;46.516;-122.928;2023-09-19T03:47:34;53;53;
81998;PMS5003;71598;46.516;-122.928;2023-09-19T03:50:00;54;53;
81998;PMS5003;71598;46.516;-122.928;2023-09-19T03:52:25;59;59;
81998;PMS5003;71598;46.516;-122.928;2023-09-19T03:54:50;60;58;
81998;PMS5003;71598;46.516;-122.928;2023-09-19T03:57:17;54;54;
81998;PMS5003;71598;46.516;-122.928;2023-09-19T03:59:41;55;55;
81998;PMS5003;71598;46.516;-122.928;2023-09-19T04:02:06;55;54;
81998;PMS5003;71598;46.516;-122.928;2023-09-19T04:04:32;56;54;
81998;PMS5003;71598;46.516;-122.928;2023-09-19T04:06:57;54;54;
81998;PMS5003;71598;46.516;-122.928;2023-09-19T04:09:23;55;55;
81998;PMS5003;71598;46.516;-122.928;2023-09-19T04:11:47;58;57;
81998;PMS5003;71598;46.516;-122.928;2023-09-19T04:14:13;54;53;
81998;PMS5003;71598;46.516;-122.928;2023-09-19T04:16:38;50;50;
81998;PMS5003;71598;46.516;-122.928;2023-09-19T04:19:03;51;51;
81998;PMS5003;71598;46.516;-122.928;2023-09-19T04:21:29;53;53;
81998;PMS5003;71598;46.516;-122.928;2023-09-19T04:23:55;57;56;
81998;PMS5003;71598;46.516;-122.928;2023-09-19T04:26:20;52;50;
81998;PMS5003;71598;46.516;-122.928;2023-09-19T04:28:46;59;58;
81998;PMS5003;71598;46.516;-122.928;2023-09-19T04:31:11;53;52;
81998;PMS5003;71598;46.516;-122.928;2023-09-19T04:33:37;59;56;
81998;PMS5003;71598;46.516;-122.928;2023-09-19T04:36:02;55;54;
81998;PMS5003;71598;46.516;-122.928;2023-09-19T04:38:28;57;57;
81998;PMS5003;71598;46.516;-122.928;2023-09-19T04:40:57;61;61;
81998;PMS5003;71598;46.516;-122.928;2023-09-19T04:43:20;56;55;
81998;PMS5003;71598;46.516;-122.928;2023-09-19T04:45:45;62;61;
81998;PMS5003;71598;46.516;-122.928;2023-09-19T04:48:10;57;57;
81998;PMS5003;71598;46.516;-122.928;2023-09-19T04:50:36;56;56;
81998;PMS5003;71598;46.516;-122.928;2023-09-19T04:53:02;56;56;
81998;PMS5003;71598;46.516;-122.928;2023-09-19T04:55:27;57;56;
81998;PMS5003;71598;46.516;-122.928;2023-09-19T04:57:54;56;55;
81998;PMS5003;71598;46.516;-122.928;2023-09-19T05:00:19;52;52;
81998;PMS5003;71598;46.516;-122.928;2023-09-19T05:02:44;58;58;
81998;PMS5003;71598;46.516;-122.928;2023-09-19T05:05:10;60;59;
81998;PMS5003;71598;46.516;-122.928;2023-09-19T05:07:35;68;66;
81998;PMS5003;71598;46.516;-122.928;2023-09-19T05:10:01;72;71;
81998;PMS5003;71598;46.516;-122.928;2023-09-19T05:12:26;64;63;
81998;PMS5003;71598;46.516;-122.928;2023-09-19T05:14:51;56;56;
81998;PMS5003;71598;46.516;-122.928;2023-09-19T05:17:18;63;61;
81998;PMS5003;71598;46.516;-122.928;2023-09-19T05:19:43;64;62;
81998;PMS5003;71598;46.516;-122.928;2023-09-19T05:22:08;62;61;
81998;PMS5003;71598;46.516;-122.928;2023-09-19T05:24:33;59;58;
81998;PMS5003;71598;46.516;-122.928;2023-09-19T05:26:59;64;64;
81998;PMS5003;71598;46.516;-122.928;2023-09-19T05:29:24;74;74;
81998;PMS5003;71598;46.516;-122.928;2023-09-19T05:31:50;62;61;
81998;PMS5003;71598;46.516;-122.928;2023-09-19T05:34:15;68;67;
81998;PMS5003;71598;46.516;-122.928;2023-09-19T05:36:41;68;65;
81998;PMS5003;71598;46.516;-122.928;2023-09-19T05:39:06;73;72;
81998;PMS5003;71598;46.516;-122.928;2023-09-19T05:41:32;68;68;
81998;PMS5003;71598;46.516;-122.928;2023-09-19T05:43:57;68;68;
81998;PMS5003;71598;46.516;-122.928;2023-09-19T05:46:22;72;71;
81998;PMS5003;71598;46.516;-122.928;2023-09-19T05:48:48;72;72;
81998;PMS5003;71598;46.516;-122.928;2023-09-19T05:51:13;72;71;
81998;PMS5003;71598;46.516;-122.928;2023-09-19T05:53:38;73;72;
81998;PMS5003;71598;46.516;-122.928;2023-09-19T05:56:04;66;64;
81998;PMS5003;71598;46.516;-122.928;2023-09-19T05:58:30;63;62;
81998;PMS5003;71598;46.516;-122.928;2023-09-19T06:00:54;78;74;
81998;PMS5003;71598;46.516;-122.928;2023-09-19T06:03:20;70;70;
81998;PMS5003;71598;46.516;-122.928;2023-09-19T06:05:45;69;68;
81998;PMS5003;71598;46.516;-122.928;2023-09-19T06:08:11;69;69;
81998;PMS5003;71598;46.516;-122.928;2023-09-19T06:10:37;74;74;
81998;PMS5003;71598;46.516;-122.928;2023-09-19T06:13:02;71;70;
81998;PMS5003;71598;46.516;-122.928;2023-09-19T06:15:27;78;77;
81998;PMS5003;71598;46.516;-122.928;2023-09-19T06:17:54;77;76;
81998;PMS5003;71598;46.516;-122.928;2023-09-19T06:20:19;74;74;
81998;PMS5003;71598;46.516;-122.928;2023-09-19T06:22:45;75;74;
81998;PMS5003;71598;46.516;-122.928;2023-09-19T06:25:10;78;75;
81998;PMS5003;71598;46.516;-122.928;2023-09-19T06:27:35;75;73;
81998;PMS5003;71598;46.516;-122.928;2023-09-19T06:30:00;76;75;
81998;PMS5003;71598;46.516;-122.928;2023-09-19T06:32:27;73;71;
81998;PMS5003;71598;46.516;-122.928;2023-09-19T06:34:52;82;80;
81998;PMS5003;71598;46.516;-122.928;2023-09-19T06:37:16;73;72;
81998;PMS5003;71598;46.516;-122.928;2023-09-19T06:39:41;77;75;
81998;PMS5003;71598;46.516;-122.928;2023-09-19T06:42:08;73;72;
81998;PMS5003;71598;46.516;-122.928;2023-09-19T06:44:32;74;72;
81998;PMS5003;71598;46.516;-122.928;2023-09-19T06:46:58;73;71;
81998;PMS5003;71598;46.516;-122.928;2023-09-19T06:49:23;77;74;
81998;PMS5003;71598;46.516;-122.928;2023-09-19T06:51:48;73;72;
81998;PMS5003;71598;46.516;-122.928;2023-09-19T06:54:13;68;68;
81998;PMS5003;71598;46.516;-122.928;2023-09-19T06:56:39;72;71;
81998;PMS5003;71598;46.516;-122.928;2023-09-19T06:59:06;73;73;
81998;PMS5003;71598;46.516;-122.928;2023-09-19T07:01:30;76;75;
81998;PMS5003;71598;46.516;-122.928;2023-09-19T07:03:56;72;70;
81998;PMS5003;71598;46.516;-122.928;2023-09-19T07:06:21;67;66;
81998;PMS5003;71598;46.516;-122.928;2023-09-19T07:08:46;71;71;
81998;PMS5003;71598;46.516;-122.928;2023-09-19T07:11:11;66;65;
81998;PMS5003;71598;46.516;-122.928;2023-09-19T07:13:37;71;69;
81998;PMS5003;71598;46.516;-122.928;2023-09-19T07:16:03;71;70;
81998;PMS5003;71598;46.516;-122.928;2023-09-19T07:18:28;65;65;
81998;PMS5003;71598;46.516;-122.928;2023-09-19T07:20:56;65;65;
81998;PMS5003;71598;46.516;-122.928;2023-09-19T07:23:19;71;69;
81998;PMS5003;71598;46.516;-122.928;2023-09-19T07:25:44;66;65;
81998;PMS5003;71598;46.516;-122.928;2023-09-19T07:28:10;64;62;
81998;PMS5003;71598;46.516;-122.928;2023-09-19T07:30:36;67;67;
81998;PMS5003;71598;46.516;-122.928;2023-09-19T07:33:01;69;67;
81998;PMS5003;71598;46.516;-122.928;2023-09-19T07:35:27;66;65;
81998;PMS5003;71598;46.516;-122.928;2023-09-19T07:37:52;63;62;
81998;PMS5003;71598;46.516;-122.928;2023-09-19T07:40:18;65;65;
81998;PMS5003;71598;46.516;-122.928;2023-09-19T07:42:42;68;67;
81998;PMS5003;71598;46.516;-122.928;2023-09-19T07:45:08;62;62;
81998;PMS5003;71598;46.516;-122.928;2023-09-19T07:47:33;61;60;
81998;PMS5003;71598;46.516;-122.928;2023-09-19T07:49:59;63;60;
81998;PMS5003;71598;46.516;-122.928;2023-09-19T07:52:24;63;63;
81998;PMS5003;71598;46.516;-122.928;2023-09-19T07:54:50;58;58;
81998;PMS5003;71598;46.516;-122.928;2023-09-19T07:57:16;58;56;
81998;PMS5003;71598;46.516;-122.928;2023-09-19T07:59:44;66;63;
81998;PMS5003;71598;46.516;-122.928;2023-09-19T08:02:07;62;61;
81998;PMS5003;71598;46.516;-122.928;2023-09-19T08:04:32;62;59;
81998;PMS5003;71598;46.516;-122.928;2023-09-19T08:06:57;64;64;
81998;PMS5003;71598;46.516;-122.928;2023-09-19T08:09:23;59;59;
81998;PMS5003;71598;46.516;-122.928;2023-09-19T08:11:48;63;60;
81998;PMS5003;71598;46.516;-122.928;2023-09-19T08:14:14;65;63;
81998;PMS5003;71598;46.516;-122.928;2023-09-19T08:16:40;62;60;
81998;PMS5003;71598;46.516;-122.928;2023-09-19T08:19:05;63;63;
81998;PMS5003;71598;46.516;-122.928;2023-09-19T08:21:31;57;56;
81998;PMS5003;71598;46.516;-122.928;2023-09-19T08:23:57;58;58;
81998;PMS5003;71598;46.516;-122.928;2023-09-19T08:26:22;59;59;
81998;PMS5003;71598;46.516;-122.928;2023-09-19T08:28:47;59;57;
81998;PMS5003;71598;46.516;-122.928;2023-09-19T08:31:13;53;52;
81998;PMS5003;71598;46.516;-122.928;2023-09-19T08:33:39;54;53;
81998;PMS5003;71598;46.516;-122.928;2023-09-19T08:36:04;57;56;
81998;PMS5003;71598;46.516;-122.928;2023-09-19T08:38:29;59;58;
81998;PMS5003;71598;46.516;-122.928;2023-09-19T08:40:55;57;55;
81998;PMS5003;71598;46.516;-122.928;2023-09-19T08:43:21;52;51;
81998;PMS5003;71598;46.516;-122.928;2023-09-19T08:45:45;57;55;
81998;PMS5003;71598;46.516;-122.928;2023-09-19T08:48:16;55;54;
81998;PMS5003;71598;46.516;-122.928;2023-09-19T08:50:39;51;50;
81998;PMS5003;71598;46.516;-122.928;2023-09-19T08:53:04;56;56;
81998;PMS5003;71598;46.516;-122.928;2023-09-19T08:55:28;52;52;
81998;PMS5003;71598;46.516;-122.928;2023-09-19T08:57:54;52;52;
81998;PMS5003;71598;46.516;-122.928;2023-09-19T09:00:18;59;58;
81998;PMS5003;71598;46.516;-122.928;2023-09-19T09:02:44;58;58;
81998;PMS5003;71598;46.516;-122.928;2023-09-19T09:05:09;49;48;
81998;PMS5003;71598;46.516;-122.928;2023-09-19T09:07:35;53;53;
81998;PMS5003;71598;46.516;-122.928;2023-09-19T09:10:00;54;54;
81998;PMS5003;71598;46.516;-122.928;2023-09-19T09:12:25;49;47;
81998;PMS5003;71598;46.516;-122.928;2023-09-19T09:14:51;54;54;
81998;PMS5003;71598;46.516;-122.928;2023-09-19T09:17:17;49;49;
81998;PMS5003;71598;46.516;-122.928;2023-09-19T09:19:42;49;49;
81998;PMS5003;71598;46.516;-122.928;2023-09-19T09:22:08;48;48;
81998;PMS5003;71598;46.516;-122.928;2023-09-19T09:24:32;46;46;
81998;PMS5003;71598;46.516;-122.928;2023-09-19T09:26:58;45;45;
81998;PMS5003;71598;46.516;-122.928;2023-09-19T09:29:38;49;48;
81998;PMS5003;71598;46.516;-122.928;2023-09-19T09:31:49;47;47;
81998;PMS5003;71598;46.516;-122.928;2023-09-19T09:34:14;45;44;
81998;PMS5003;71598;46.516;-122.928;2023-09-19T09:36:40;52;52;
81998;PMS5003;71598;46.516;-122.928;2023-09-19T09:39:05;48;45;
81998;PMS5003;71598;46.516;-122.928;2023-09-19T09:41:36;55;54;
81998;PMS5003;71598;46.516;-122.928;2023-09-19T09:43:56;45;45;
81998;PMS5003;71598;46.516;-122.928;2023-09-19T09:46:22;44;44;
81998;PMS5003;71598;46.516;-122.928;2023-09-19T09:48:47;47;46;
81998;PMS5003;71598;46.516;-122.928;2023-09-19T09:51:13;47;45;
81998;PMS5003;71598;46.516;-122.928;2023-09-19T09:53:38;53;53;
81998;PMS5003;71598;46.516;-122.928;2023-09-19T09:56:04;44;43;
81998;PMS5003;71598;46.516;-122.928;2023-09-19T09:58:29;51;50;
81998;PMS5003;71598;46.516;-122.928;2023-09-19T10:00:56;49;49;
81998;PMS5003;71598;46.516;-122.928;2023-09-19T10:03:20;45;44;
81998;PMS5003;71598;46.516;-122.928;2023-09-19T10:05:46;47;45;
81998;PMS5003;71598;46.516;-122.928;2023-09-19T10:08:11;48;47;
81998;PMS5003;71598;46.516;-122.928;2023-09-19T10:10:37;45;44;
81998;PMS5003;71598;46.516;-122.928;2023-09-19T10:13:02;46;45;
81998;PMS5003;71598;46.516;-122.928;2023-09-19T10:15:28;42;42;
81998;PMS5003;71598;46.516;-122.928;2023-09-19T10:17:53;43;43;
81998;PMS5003;71598;46.516;-122.928;2023-09-19T10:20:18;42;41;
81998;PMS5003;71598;46.516;-122.928;2023-09-19T10:22:43;48;47;
81998;PMS5003;71598;46.516;-122.928;2023-09-19T10:25:09;46;44;
81998;PMS5003;71598;46.516;-122.928;2023-09-19T10:27:34;41;41;
81998;PMS5003;71598;46.516;-122.928;2023-09-19T10:29:59;42;40;
81998;PMS5003;71598;46.516;-122.928;2023-09-19T10:32:24;40;40;
81998;PMS5003;71598;46.516;-122.928;2023-09-19T10:34:50;43;42;
81998;PMS5003;71598;46.516;-122.928;2023-09-19T10:37:16;40;39;
81998;PMS5003;71598;46.516;-122.928;2023-09-19T10:39:41;40;38;
81998;PMS5003;71598;46.516;-122.928;2023-09-19T10:42:07;39;39;
81998;PMS5003;71598;46.516;-122.928;2023-09-19T10:44:32;39;38;
81998;PMS5003;71598;46.516;-122.928;2023-09-19T10:46:58;45;43;
81998;PMS5003;71598;46.516;-122.928;2023-09-19T10:49:23;39;38;
81998;PMS5003;71598;46.516;-122.928;2023-09-19T10:51:49;37;37;
81998;PMS5003;71598;46.516;-122.928;2023-09-19T10:54:13;44;43;
81998;PMS5003;71598;46.516;-122.928;2023-09-19T10:56:40;36;35;
81998;PMS5003;71598;46.516;-122.928;2023-09-19T10:59:08;40;39;
81998;PMS5003;71598;46.516;-122.928;2023-09-19T11:01:41;39;38;
81998;PMS5003;71598;46.516;-122.928;2023-09-19T11:04:20;40;39;
81998;PMS5003;71598;46.516;-122.928;2023-09-19T11:06:20;37;36;
81998;PMS5003;71598;46.516;-122.928;2023-09-19T11:08:53;43;42;
81998;PMS5003;71598;46.516;-122.928;2023-09-19T11:11:27;35;34;
81998;PMS5003;71598;46.516;-122.928;2023-09-19T11:13:36;39;37;
81998;PMS5003;71598;46.516;-122.928;2023-09-19T11:16:03;35;35;
81998;PMS5003;71598;46.516;-122.928;2023-09-19T11:18:59;35;34;
81998;PMS5003;71598;46.516;-122.928;2023-09-19T11:20:58;37;36;
81998;PMS5003;71598;46.516;-122.928;2023-09-19T11:23:19;38;37;
81998;PMS5003;71598;46.516;-122.928;2023-09-19T11:25:43;38;37;
81998;PMS5003;71598;46.516;-122.928;2023-09-19T11:28:29;37;37;
81998;PMS5003;71598;46.516;-122.928;2023-09-19T11:30:34;35;35;
81998;PMS5003;71598;46.516;-122.928;2023-09-19T11:33:31;33;32;
81998;PMS5003;71598;46.516;-122.928;2023-09-19T11:35:24;35;35;
81998;PMS5003;71598;46.516;-122.928;2023-09-19T11:38:00;39;39;
81998;PMS5003;71598;46.516;-122.928;2023-09-19T11:40:15;37;37;
81998;PMS5003;71598;46.516;-122.928;2023-09-19T11:42:42;37;36;
81998;PMS5003;71598;46.516;-122.928;2023-09-19T11:45:08;38;38;
81998;PMS5003;71598;46.516;-122.928;2023-09-19T11:47:31;39;39;
81998;PMS5003;71598;46.516;-122.928;2023-09-19T11:49:57;38;36;
81998;PMS5003;71598;46.516;-122.928;2023-09-19T11:52:23;34;34;
81998;PMS5003;71598;46.516;-122.928;2023-09-19T11:54:54;36;35;
81998;PMS5003;71598;46.516;-122.928;2023-09-19T11:57:14;33;33;
81998;PMS5003;71598;46.516;-122.928;2023-09-19T11:59:40;37;37;
81998;PMS5003;71598;46.516;-122.928;2023-09-19T12:02:06;40;39;
81998;PMS5003;71598;46.516;-122.928;2023-09-19T12:04:34;34;32;
81998;PMS5003;71598;46.516;-122.928;2023-09-19T12:06:56;35;34;
81998;PMS5003;71598;46.516;-122.928;2023-09-19T12:09:21;37;37;
81998;PMS5003;71598;46.516;-122.928;2023-09-19T12:11:48;36;34;
81998;PMS5003;71598;46.516;-122.928;2023-09-19T12:14:21;27;27;
81998;PMS5003;71598;46.516;-122.928;2023-09-19T12:16:38;35;34;
81998;PMS5003;71598;46.516;-122.928;2023-09-19T12:19:19;31;30;
81998;PMS5003;71598;46.516;-122.928;2023-09-19T12:21:30;39;37;
81998;PMS5003;71598;46.516;-122.928;2023-09-19T12:23:58;32;32;
81998;PMS5003;71598;46.516;-122.928;2023-09-19T12:26:19;38;37;
81998;PMS5003;71598;46.516;-122.928;2023-09-19T12:28:45;33;33;
81998;PMS5003;71598;46.516;-122.928;2023-09-19T12:31:10;34;34;
81998;PMS5003;71598;46.516;-122.928;2023-09-19T12:33:35;34;33;
81998;PMS5003;71598;46.516;-122.928;2023-09-19T12:36:00;35;33;
81998;PMS5003;71598;46.516;-122.928;2023-09-19T12:38:26;34;32;
81998;PMS5003;71598;46.516;-122.928;2023-09-19T12:40:51;33;33;
81998;PMS5003;71598;46.516;-122.928;2023-09-19T12:43:17;33;33;
81998;PMS5003;71598;46.516;-122.928;2023-09-19T12:45:42;33;32;
81998;PMS5003;71598;46.516;-122.928;2023-09-19T12:48:24;30;29;
81998;PMS5003;71598;46.516;-122.928;2023-09-19T12:50:33;33;32;
81998;PMS5003;71598;46.516;-122.928;2023-09-19T12:52:58;34;32;
81998;PMS5003;71598;46.516;-122.928;2023-09-19T12:55:24;33;32;
81998;PMS5003;71598;46.516;-122.928;2023-09-19T12:57:58;33;32;
81998;PMS5003;71598;46.516;-122.928;2023-09-19T13:00:15;31;30;
81998;PMS5003;71598;46.516;-122.928;2023-09-19T13:03:09;35;35;
81998;PMS5003;71598;46.516;-122.928;2023-09-19T13:05:05;31;30;
81998;PMS5003;71598;46.516;-122.928;2023-09-19T13:07:46;33;30;
81998;PMS5003;71598;46.516;-122.928;2023-09-19T13:10:02;31;30;
81998;PMS5003;71598;46.516;-122.928;2023-09-19T13:12:38;31;29;
81998;PMS5003;71598;46.516;-122.928;2023-09-19T13:14:47;30;30;
81998;PMS5003;71598;46.516;-122.928;2023-09-19T13:17:13;28;27;
81998;PMS5003;71598;46.516;-122.928;2023-09-19T13:19:39;35;35;
81998;PMS5003;71598;46.516;-122.928;2023-09-19T13:22:03;31;31;
81998;PMS5003;71598;46.516;-122.928;2023-09-19T13:24:29;27;27;
81998;PMS5003;71598;46.516;-122.928;2023-09-19T13:26:55;30;30;
81998;PMS5003;71598;46.516;-122.928;2023-09-19T13:29:20;25;25;
81998;PMS5003;71598;46.516;-122.928;2023-09-19T13:31:47;26;26;
81998;PMS5003;71598;46.516;-122.928;2023-09-19T13:34:11;30;29;
81998;PMS5003;71598;46.516;-122.928;2023-09-19T13:36:36;24;24;
81998;PMS5003;71598;46.516;-122.928;2023-09-19T13:39:02;21;20;
81998;PMS5003;71598;46.516;-122.928;2023-09-19T13:41:27;24;24;
81998;PMS5003;71598;46.516;-122.928;2023-09-19T13:43:53;25;25;
81998;PMS5003;71598;46.516;-122.928;2023-09-19T13:46:18;21;21;
81998;PMS5003;71598;46.516;-122.928;2023-09-19T13:48:44;23;22;
81998;PMS5003;71598;46.516;-122.928;2023-09-19T13:51:09;22;22;
81998;PMS5003;71598;46.516;-122.928;2023-09-19T13:53:34;23;23;
81998;PMS5003;71598;46.516;-122.928;2023-09-19T13:56:00;21;21;
81998;PMS5003;71598;46.516;-122.928;2023-09-19T13:58:25;20;20;
81998;PMS5003;71598;46.516;-122.928;2023-09-19T14:00:51;25;23;
81998;PMS5003;71598;46.516;-122.928;2023-09-19T14:03:17;22;21;
81998;PMS5003;71598;46.516;-122.928;2023-09-19T14:05:41;19;19;
81998;PMS5003;71598;46.516;-122.928;2023-09-19T14:08:06;19;19;
81998;PMS5003;71598;46.516;-122.928;2023-09-19T14:10:31;17;17;
81998;PMS5003;71598;46.516;-122.928;2023-09-19T14:12:57;20;20;
81998;PMS5003;71598;46.516;-122.928;2023-09-19T14:15:22;21;20;
81998;PMS5003;71598;46.516;-122.928;2023-09-19T14:17:47;20;19;
81998;PMS5003;71598;46.516;-122.928;2023-09-19T14:20:13;19;19;
81998;PMS5003;71598;46.516;-122.928;2023-09-19T14:22:38;20;20;
81998;PMS5003;71598;46.516;-122.928;2023-09-19T14:25:04;20;19;
81998;PMS5003;71598;46.516;-122.928;2023-09-19T14:27:29;16;16;
81998;PMS5003;71598;46.516;-122.928;2023-09-19T14:29:54;19;19;
81998;PMS5003;71598;46.516;-122.928;2023-09-19T14:32:20;18;17;
81998;PMS5003;71598;46.516;-122.928;2023-09-19T14:34:45;17;17;
81998;PMS5003;71598;46.516;-122.928;2023-09-19T14:37:11;16;16;
81998;PMS5003;71598;46.516;-122.928;2023-09-19T14:39:36;15;15;
81998;PMS5003;71598;46.516;-122.928;2023-09-19T14:42:02;17;17;
81998;PMS5003;71598;46.516;-122.928;2023-09-19T14:44:27;16;16;
81998;PMS5003;71598;46.516;-122.928;2023-09-19T14:46:52;17;16;
81998;PMS5003;71598;46.516;-122.928;2023-09-19T14:49:17;17;17;
81998;PMS5003;71598;46.516;-122.928;2023-09-19T14:51:43;16;16;
81998;PMS5003;71598;46.516;-122.928;2023-09-19T14:54:08;15;14;
81998;PMS5003;71598;46.516;-122.928;2023-09-19T14:56:34;14;14;
81998;PMS5003;71598;46.516;-122.928;2023-09-19T14:58:59;14;14;
81998;PMS5003;71598;46.516;-122.928;2023-09-19T15:01:25;16;16;
81998;PMS5003;71598;46.516;-122.928;2023-09-19T15:03:51;14;14;
81998;PMS5003;71598;46.516;-122.928;2023-09-19T15:06:15;11;11;
81998;PMS5003;71598;46.516;-122.928;2023-09-19T15:08:41;15;14;
81998;PMS5003;71598;46.516;-122.928;2023-09-19T15:11:06;14;14;
81998;PMS5003;71598;46.516;-122.928;2023-09-19T15:13:32;14;14;
81998;PMS5003;71598;46.516;-122.928;2023-09-19T15:15:59;13;13;
81998;PMS5003;71598;46.516;-122.928;2023-09-19T15:18:22;12;12;
81998;PMS5003;71598;46.516;-122.928;2023-09-19T15:20:48;11;11;